createdAt,value
2023-01-19T00:01:00.763Z,101775.69
2023-01-19T00:06:06.584Z,101769.81
2023-01-19T00:11:10.224Z,101764.53
2023-01-19T00:16:15.532Z,101756.06
2023-01-19T00:21:19.664Z,101768.34
2023-01-19T00:26:23.306Z,101775.28
2023-01-19T00:31:28.655Z,101780.84
2023-01-19T00:36:32.606Z,101760.78
2023-01-19T00:41:36.259Z,101773.72
2023-01-19T00:46:41.567Z,101760.59
2023-01-19T00:51:46.094Z,101755.38
2023-01-19T00:56:49.705Z,101761.47
2023-01-19T01:01:55.296Z,101760.63
2023-01-19T01:06:59.043Z,101745.91
2023-01-19T01:12:02.740Z,101741.56
2023-01-19T01:17:09.087Z,101749.38
2023-01-19T01:22:12.737Z,101734.72
2023-01-19T01:27:16.448Z,101725.09
2023-01-19T01:32:21.747Z,101716.31
2023-01-19T01:37:25.386Z,101710.31
2023-01-19T01:42:31.853Z,101699.06
2023-01-19T01:47:42.274Z,101696.47
2023-01-19T01:53:07.419Z,101689.63
2023-01-19T01:58:13.450Z,101686.97
2023-01-19T02:03:18.846Z,101678.09
2023-01-19T02:08:28.555Z,101673.75
2023-01-19T02:13:34.849Z,101688.53
2023-01-19T02:18:41.105Z,101684.00
2023-01-19T02:23:48.341Z,101672.66
2023-01-19T02:28:57.419Z,101664.81
2023-01-19T02:34:02.840Z,101673.66
2023-01-19T02:39:11.453Z,101670.03
2023-01-19T02:44:17.376Z,101673.59
2023-01-19T02:49:21.033Z,101666.66
2023-01-19T02:54:37.313Z,101676.28
2023-01-19T02:59:56.402Z,101663.19
2023-01-19T03:05:20.451Z,101670.13
2023-01-19T03:10:35.282Z,101657.88
2023-01-19T03:15:44.645Z,101654.50
2023-01-19T03:20:51.836Z,101644.00
2023-01-19T03:25:58.748Z,101638.78
2023-01-19T03:31:06.484Z,101627.53
2023-01-19T03:36:14.774Z,101623.22
2023-01-19T03:41:23.004Z,101617.13
2023-01-19T03:46:27.578Z,101622.41
2023-01-19T03:51:31.367Z,101622.38
2023-01-19T03:56:36.806Z,101611.88
2023-01-19T04:01:40.485Z,101595.38
2023-01-19T04:06:44.567Z,101606.75
2023-01-19T04:11:49.892Z,101609.28
2023-01-19T04:16:53.525Z,101607.16
2023-01-19T04:21:57.140Z,101599.41
2023-01-19T04:27:02.458Z,101591.88
2023-01-19T04:32:06.636Z,101585.78
2023-01-19T04:37:10.510Z,101586.91
2023-01-19T04:42:15.823Z,101582.53
2023-01-19T04:47:19.647Z,101592.13
2023-01-19T04:52:23.327Z,101591.97
2023-01-19T04:57:28.590Z,101586.59
2023-01-19T05:02:32.247Z,101609.28
2023-01-19T05:07:35.946Z,101665.97
2023-01-19T05:12:41.221Z,101686.41
2023-01-19T05:17:44.886Z,101690.13
2023-01-19T05:22:50.800Z,101696.34
2023-01-19T05:27:56.122Z,101693.88
2023-01-19T05:33:00.606Z,101699.22
2023-01-19T05:38:04.564Z,101703.50
2023-01-19T05:43:09.907Z,101711.44
2023-01-19T05:48:13.499Z,101704.38
2023-01-19T05:53:18.079Z,101707.00
2023-01-19T05:58:23.361Z,101688.72
2023-01-19T06:03:27.085Z,101707.84
2023-01-19T06:08:30.750Z,101692.28
2023-01-19T06:13:36.228Z,101705.41
2023-01-19T06:18:39.984Z,101707.97
2023-01-19T06:23:43.580Z,101711.44
2023-01-19T06:28:48.950Z,101731.50
2023-01-19T06:33:52.585Z,101734.06
2023-01-19T06:38:56.236Z,101733.25
2023-01-19T06:44:01.722Z,101738.50
2023-01-19T06:49:05.419Z,101753.34
2023-01-19T06:54:09.146Z,101759.41
2023-01-19T06:59:14.439Z,101763.84
2023-01-19T07:04:18.064Z,101769.91
2023-01-19T07:09:21.819Z,101776.91
2023-01-19T07:14:27.168Z,101779.53
2023-01-19T07:19:31.567Z,101781.31
2023-01-19T07:24:35.195Z,101788.28
2023-01-19T07:29:41.278Z,101787.38
2023-01-19T07:34:44.932Z,101786.50
2023-01-19T07:39:48.564Z,101790.84
2023-01-19T07:44:53.874Z,101796.97
2023-01-19T07:49:57.634Z,101790.03
2023-01-19T07:55:01.297Z,101789.13
2023-01-19T08:00:07.678Z,101797.81
2023-01-19T08:05:11.482Z,101803.03
2023-01-19T08:10:15.999Z,101811.69
2023-01-19T08:15:21.498Z,101816.00
2023-01-19T08:20:25.985Z,101805.59
2023-01-19T08:25:33.991Z,101808.19
2023-01-19T08:30:39.602Z,101806.44
2023-01-19T08:35:44.281Z,101812.50
2023-01-19T08:40:49.619Z,101819.44
2023-01-19T08:45:54.954Z,101840.22
2023-01-19T08:50:58.948Z,101822.88
2023-01-19T08:56:02.638Z,101841.09
2023-01-19T09:01:08.852Z,101844.53
2023-01-19T09:06:14.175Z,101851.50
2023-01-19T09:11:18.446Z,101858.44
2023-01-19T09:16:23.867Z,101865.38
2023-01-19T09:21:28.168Z,101864.50
2023-01-19T09:26:33.100Z,101863.63
2023-01-19T09:31:38.729Z,101864.47
2023-01-19T09:36:42.390Z,101859.25
2023-01-19T09:41:49.876Z,101865.34
2023-01-19T09:46:55.262Z,101852.28
2023-01-19T09:52:00.131Z,101860.94
2023-01-19T09:57:05.020Z,101864.41
2023-01-19T10:02:22.472Z,101873.94
2023-01-19T10:07:53.882Z,101876.50
2023-01-19T10:13:12.141Z,101881.63
2023-01-19T10:18:24.027Z,101882.50
2023-01-19T10:23:37.350Z,101880.75
2023-01-19T10:28:41.525Z,101882.53
2023-01-19T10:33:47.083Z,101886.81
2023-01-19T10:38:50.896Z,101881.69
2023-01-19T10:44:01.481Z,101879.88
2023-01-19T10:49:07.480Z,101885.13
2023-01-19T10:54:14.213Z,101889.53
2023-01-19T10:59:32.955Z,101878.22
2023-01-19T11:04:38.432Z,101878.22
2023-01-19T11:09:42.173Z,101879.13
2023-01-19T11:14:46.348Z,101885.19
2023-01-19T11:20:02.567Z,101890.44
2023-01-19T11:25:07.236Z,101877.41
2023-01-19T11:30:22.912Z,101891.28
2023-01-19T11:35:42.705Z,101887.81
2023-01-19T11:40:53.272Z,101876.50
2023-01-19T11:45:58.160Z,101887.69
2023-01-19T11:51:06.596Z,101890.25
2023-01-19T11:56:11.904Z,101889.34
2023-01-19T12:01:21.953Z,101895.28
2023-01-19T12:06:32.248Z,101898.63
2023-01-19T12:11:39.508Z,101903.75
2023-01-19T12:16:44.444Z,101905.34
2023-01-19T12:21:50.586Z,101915.56
2023-01-19T12:26:57.124Z,101915.47
2023-01-19T12:32:20.282Z,101893.81
2023-01-19T12:37:41.256Z,101888.53
2023-01-19T12:42:48.167Z,101886.63
2023-01-19T12:47:55.582Z,101885.78
2023-01-19T12:53:03.435Z,101890.16
2023-01-19T12:58:13.594Z,101876.31
2023-01-19T13:03:58.418Z,101870.34
2023-01-19T13:09:03.723Z,101870.56
2023-01-19T13:14:36.476Z,101870.69
2023-01-19T13:20:05.852Z,101872.47
2023-01-19T13:25:13.708Z,101875.97
2023-01-19T13:30:21.696Z,101887.28
2023-01-19T13:35:25.603Z,101895.94
2023-01-19T13:40:38.208Z,101900.25
2023-01-19T13:45:42.630Z,101905.50
2023-01-19T13:50:58.334Z,101902.97
2023-01-19T13:56:18.617Z,101910.72
2023-01-19T14:01:23.801Z,101918.50
2023-01-19T14:06:35.421Z,101917.56
2023-01-19T14:11:40.796Z,101930.41
2023-01-19T14:16:45.107Z,101934.63
2023-01-19T14:21:59.850Z,101940.53
2023-01-19T14:27:21.606Z,101960.28
2023-01-19T14:32:26.218Z,101961.09
2023-01-19T14:37:32.100Z,101970.31
2023-01-19T14:42:40.118Z,101975.41
2023-01-19T14:47:45.747Z,101970.06
2023-01-19T14:52:56.309Z,101973.50
2023-01-19T14:58:01.660Z,101984.72
2023-01-19T15:03:05.365Z,101996.72
2023-01-19T15:08:11.911Z,101999.22
2023-01-19T15:13:22.809Z,102003.34
2023-01-19T15:18:28.182Z,102011.91
2023-01-19T15:23:32.133Z,102009.38
2023-01-19T15:28:37.447Z,102023.22
2023-01-19T15:33:41.116Z,102011.97
2023-01-19T15:38:44.895Z,102010.38
2023-01-19T15:43:50.388Z,102021.81
2023-01-19T15:48:54.904Z,102015.88
2023-01-19T15:53:58.489Z,102021.34
2023-01-19T15:59:03.766Z,102031.72
2023-01-19T16:04:09.809Z,102033.63
2023-01-19T16:09:13.472Z,102032.84
2023-01-19T16:14:18.731Z,102040.78
2023-01-19T16:19:22.352Z,102041.78
2023-01-19T16:24:26.105Z,102055.69
2023-01-19T16:29:31.508Z,102058.72
2023-01-19T16:34:36.008Z,102066.94
2023-01-19T16:39:39.844Z,102064.69
2023-01-19T16:44:45.146Z,102077.94
2023-01-19T16:49:48.817Z,102093.78
2023-01-19T16:54:52.555Z,102100.91
2023-01-19T16:59:57.834Z,102115.75
2023-01-19T17:05:01.463Z,102097.56
2023-01-19T17:10:05.734Z,102110.72
2023-01-19T17:15:11.962Z,102114.19
2023-01-19T17:20:15.876Z,102118.56
2023-01-19T17:25:19.508Z,102125.47
2023-01-19T17:30:24.874Z,102126.31
2023-01-19T17:35:29.266Z,102141.06
2023-01-19T17:40:33.760Z,102148.91
2023-01-19T17:45:39.409Z,102158.44
2023-01-19T17:50:43.092Z,102154.03
2023-01-19T17:55:46.700Z,102180.16
2023-01-19T18:00:52.015Z,102167.94
2023-01-19T18:05:55.920Z,102173.09
2023-01-19T18:11:00.816Z,102180.81
2023-01-19T18:16:08.533Z,102184.22
2023-01-19T18:21:14.013Z,102184.13
2023-01-19T18:26:18.957Z,102160.53
2023-01-19T18:31:24.360Z,102147.44
2023-01-19T18:36:28.132Z,102154.31
2023-01-19T18:41:31.917Z,102146.53
2023-01-19T18:46:37.561Z,102150.75
2023-01-19T18:51:41.503Z,102149.78
2023-01-19T18:56:45.212Z,102149.78
2023-01-19T19:01:50.597Z,102159.34
2023-01-19T19:06:54.284Z,102164.53
2023-01-19T19:11:58.255Z,102151.47
2023-01-19T19:17:04.315Z,102141.91
2023-01-19T19:22:07.162Z,102136.63
2023-01-19T19:27:10.798Z,102126.25
2023-01-19T19:32:16.774Z,102117.41
2023-01-19T19:37:20.802Z,102127.00
2023-01-19T19:42:24.620Z,102114.72
2023-01-19T19:47:29.879Z,102102.41
2023-01-19T19:52:38.027Z,102092.88
2023-01-19T19:57:41.748Z,102094.34
2023-01-19T20:02:47.009Z,102088.81
2023-01-19T20:07:50.626Z,102092.50
2023-01-19T20:12:54.290Z,102086.03
2023-01-19T20:17:59.560Z,102073.03
2023-01-19T20:23:03.362Z,102069.53
2023-01-19T20:28:07.039Z,102057.34
2023-01-19T20:33:13.490Z,102064.06
2023-01-19T20:38:17.087Z,102048.09
2023-01-19T20:43:20.767Z,102052.19
2023-01-19T20:48:26.194Z,102047.00
2023-01-19T20:53:30.043Z,102037.56
2023-01-19T20:58:34.461Z,102023.91
2023-01-19T21:03:39.782Z,102023.19
2023-01-19T21:08:43.646Z,102027.47
2023-01-19T21:13:47.449Z,102018.03
2023-01-19T21:18:52.921Z,102012.94
2023-01-19T21:23:58.075Z,102001.03
2023-01-19T21:29:02.702Z,102004.81
2023-01-19T21:34:08.009Z,101995.16
2023-01-19T21:39:11.951Z,102000.06
2023-01-19T21:44:15.946Z,102002.25
2023-01-19T21:49:22.815Z,102000.75
2023-01-19T21:54:26.937Z,102007.88
2023-01-19T21:59:30.764Z,101992.66
2023-01-19T22:04:36.901Z,101999.00
2023-01-19T22:09:40.652Z,101996.31
2023-01-19T22:14:44.255Z,101991.97
2023-01-19T22:19:49.528Z,101999.09
2023-01-19T22:24:53.451Z,102005.94
2023-01-19T22:29:57.802Z,101996.59
2023-01-19T22:35:03.147Z,101993.75
2023-01-19T22:40:07.759Z,101991.84
2023-01-19T22:45:12.198Z,101993.56
2023-01-19T22:50:17.996Z,101989.53
2023-01-19T22:55:21.638Z,101984.63
2023-01-19T23:00:25.328Z,101982.97
2023-01-19T23:05:30.663Z,101984.66
2023-01-19T23:10:34.314Z,101988.91
2023-01-19T23:15:38.013Z,101982.78
2023-01-19T23:20:43.342Z,101978.28
2023-01-19T23:25:47.027Z,101980.31
2023-01-19T23:30:50.793Z,101993.47
2023-01-19T23:35:57.825Z,102008.44
2023-01-19T23:41:01.494Z,102006.88
2023-01-19T23:46:05.456Z,102010.38
2023-01-19T23:51:12.234Z,102020.38
2023-01-19T23:56:17.644Z,102013.41
